RJAA/NRT METAR and TAF weather

Enter ICAO airport designator
Station Type Date Time Source
RJAA METAR 2019/06/19 00:30 UTC NOAA

RJAA 190030Z 20005KT 120V230 9999 FEW015 BKN025 BKN/// 25/19 Q1008 NOSIG RMK 1CU015 5CU025 A2977


Station Type Date Time Source
RJAA Decoded METAR 2019/06/19 00:30 UTC NOAA

New Tokyo Inter-National Airport, Japan (RJAA) 35-46N 140-23E 44M
Jun 18, 2019 - 08:30 PM EDT / 2019.06.19 0030 UTC
Wind: from the SSW (200 degrees) at 6 MPH (5 KT) (direction variable):0
Visibility: greater than 7 mile(s):0
Sky conditions: mostly cloudy
Temperature: 77 F (25 C)
Dew Point: 66 F (19 C)
Relative Humidity: 69%
Pressure (altimeter): 29.77 in. Hg (1008 hPa)
ob: RJAA 190030Z 20005KT 120V230 9999 FEW015 BKN025 BKN/// 25/19 Q1008 NOSIG RMK 1CU015 5CU025 A2977
cycle: 0

Station Type Date Time Source
RJAA TAF 2019/06/18 18:14 UTC NOAA

TAF RJAA 181709Z 1818/2000 16004KT 9999 FEW030
BECMG 1900/1902 26005KT
BECMG 1903/1905 16006KT
TEMPO 1906/1909 -TSRA FEW015CB FEW020 BKN040

Example: see airport list